createdAt,value
2018-09-12T00:00:58.560Z,48.00
2018-09-12T00:02:02.012Z,48.00
2018-09-12T00:03:05.316Z,48.00
2018-09-12T00:04:08.615Z,48.00
2018-09-12T00:05:11.762Z,48.10
2018-09-12T00:06:14.851Z,48.10
2018-09-12T00:07:18.069Z,48.10
2018-09-12T00:08:21.421Z,48.20
2018-09-12T00:09:24.756Z,48.20
2018-09-12T00:10:27.856Z,48.20
2018-09-12T00:11:31.109Z,48.20
2018-09-12T00:12:34.248Z,48.20
2018-09-12T00:13:37.565Z,48.20
2018-09-12T00:14:41.014Z,48.20
2018-09-12T00:15:44.221Z,48.20
2018-09-12T00:16:47.677Z,48.20
2018-09-12T00:17:50.920Z,48.20
2018-09-12T00:18:54.039Z,48.20
2018-09-12T00:19:57.303Z,48.20
2018-09-12T00:21:00.837Z,48.20
2018-09-12T00:22:08.126Z,48.20
2018-09-12T00:23:12.887Z,48.10
2018-09-12T00:24:17.660Z,48.10
2018-09-12T00:25:20.823Z,48.10
2018-09-12T00:26:24.258Z,48.20
2018-09-12T00:27:27.340Z,48.20
2018-09-12T00:28:30.564Z,48.20
2018-09-12T00:29:33.701Z,48.10
2018-09-12T00:30:37.025Z,48.20
2018-09-12T00:31:40.333Z,48.20
2018-09-12T00:32:43.596Z,48.20
2018-09-12T00:33:46.714Z,48.20
2018-09-12T00:34:50.186Z,48.20
2018-09-12T00:35:53.696Z,48.20
2018-09-12T00:36:56.914Z,48.20
2018-09-12T00:38:00.311Z,48.20
2018-09-12T00:39:04.710Z,48.20
2018-09-12T00:40:09.578Z,48.20
2018-09-12T00:41:12.885Z,48.20
2018-09-12T00:42:16.247Z,48.20
2018-09-12T00:43:19.737Z,48.20
2018-09-12T00:44:23.051Z,48.20
2018-09-12T00:45:26.356Z,48.20
2018-09-12T00:46:29.859Z,48.20
2018-09-12T00:47:32.974Z,48.20
2018-09-12T00:48:36.493Z,48.20
2018-09-12T00:49:39.588Z,48.20
2018-09-12T00:50:42.828Z,48.20
2018-09-12T00:51:47.215Z,48.20
2018-09-12T00:52:51.861Z,48.20
2018-09-12T00:53:57.668Z,48.20
2018-09-12T00:55:00.774Z,48.20
2018-09-12T00:56:04.068Z,48.20
2018-09-12T00:57:07.411Z,48.30
2018-09-12T00:58:10.696Z,48.30
2018-09-12T00:59:13.779Z,48.30
2018-09-12T01:00:17.507Z,48.30
2018-09-12T01:01:26.193Z,48.20
2018-09-12T01:02:30.748Z,48.20
2018-09-12T01:03:33.869Z,48.20
2018-09-12T01:04:36.975Z,48.20
2018-09-12T01:05:41.293Z,48.20
2018-09-12T01:06:44.344Z,48.20
2018-09-12T01:07:47.422Z,48.20
2018-09-12T01:08:50.464Z,48.20
2018-09-12T01:09:53.547Z,48.20
2018-09-12T01:10:56.654Z,48.20
2018-09-12T01:11:59.840Z,48.20
2018-09-12T01:13:03.018Z,48.20
2018-09-12T01:14:06.217Z,48.20
2018-09-12T01:15:09.338Z,48.20
2018-09-12T01:16:12.335Z,48.20
2018-09-12T01:17:15.416Z,48.20
2018-09-12T01:18:19.046Z,48.20
2018-09-12T01:19:22.165Z,48.20
2018-09-12T01:20:25.244Z,48.10
2018-09-12T01:21:28.442Z,48.20
2018-09-12T01:22:31.509Z,48.10
2018-09-12T01:23:34.561Z,48.10
2018-09-12T01:24:37.714Z,48.10
2018-09-12T01:25:40.829Z,48.10
2018-09-12T01:26:43.962Z,48.10
2018-09-12T01:27:51.198Z,48.20
2018-09-12T01:28:54.284Z,48.20
2018-09-12T01:29:57.508Z,48.20
2018-09-12T01:31:00.687Z,48.20
2018-09-12T01:32:03.680Z,48.10
2018-09-12T01:33:06.745Z,48.20
2018-09-12T01:34:09.905Z,48.20
2018-09-12T01:35:12.944Z,48.20
2018-09-12T01:36:16.076Z,48.70
2018-09-12T01:37:19.176Z,48.20
2018-09-12T01:38:22.421Z,48.00
2018-09-12T01:39:25.578Z,48.20
2018-09-12T01:40:29.098Z,48.20
2018-09-12T01:41:32.670Z,48.10
2018-09-12T01:42:35.973Z,48.20
2018-09-12T01:43:39.273Z,48.10
2018-09-12T01:44:42.280Z,48.10
2018-09-12T01:45:45.320Z,48.20
2018-09-12T01:46:48.400Z,48.20
2018-09-12T01:47:51.617Z,48.20
2018-09-12T01:48:54.760Z,48.20
2018-09-12T01:49:58.004Z,48.20
2018-09-12T01:51:01.270Z,48.10
2018-09-12T01:52:04.475Z,48.20
2018-09-12T01:53:07.540Z,48.10
2018-09-12T01:54:10.665Z,48.10
2018-09-12T01:55:13.797Z,48.10
2018-09-12T01:56:16.924Z,48.10
2018-09-12T01:57:20.368Z,48.10
2018-09-12T01:58:23.443Z,48.10
2018-09-12T01:59:26.732Z,48.20
2018-09-12T02:00:35.401Z,48.10
2018-09-12T02:01:38.694Z,48.10
2018-09-12T02:02:42.132Z,48.10
2018-09-12T02:03:45.477Z,48.10
2018-09-12T02:04:48.777Z,48.10
2018-09-12T02:05:52.088Z,48.10
2018-09-12T02:06:55.923Z,48.10
2018-09-12T02:08:00.030Z,48.10
2018-09-12T02:09:04.645Z,48.10
2018-09-12T02:10:09.526Z,48.10
2018-09-12T02:11:13.411Z,48.10
2018-09-12T02:12:16.785Z,48.10
2018-09-12T02:13:20.384Z,48.10
2018-09-12T02:14:24.419Z,48.10
2018-09-12T02:15:28.651Z,48.10
2018-09-12T02:16:34.167Z,48.10
2018-09-12T02:17:37.706Z,48.20
2018-09-12T02:18:41.880Z,48.20
2018-09-12T02:19:45.864Z,48.20
2018-09-12T02:20:50.435Z,48.20
2018-09-12T02:21:53.543Z,48.80
2018-09-12T02:22:56.667Z,48.80
2018-09-12T02:23:59.985Z,48.10
2018-09-12T02:25:03.096Z,48.10
2018-09-12T02:26:06.274Z,48.10
2018-09-12T02:27:09.502Z,48.10
2018-09-12T02:28:12.719Z,48.10
2018-09-12T02:29:15.907Z,48.10
2018-09-12T02:30:19.231Z,48.10
2018-09-12T02:31:23.077Z,48.10
2018-09-12T02:32:26.799Z,48.20
2018-09-12T02:33:31.274Z,48.10
2018-09-12T02:34:38.409Z,48.10
2018-09-12T02:35:48.257Z,48.10
2018-09-12T02:36:51.721Z,48.20
2018-09-12T02:37:55.195Z,48.20
2018-09-12T02:38:59.655Z,48.20
2018-09-12T02:40:03.068Z,48.20
2018-09-12T02:41:06.385Z,48.10
2018-09-12T02:42:09.962Z,48.20
2018-09-12T02:43:13.107Z,48.20
2018-09-12T02:44:16.239Z,48.20
2018-09-12T02:45:20.827Z,48.10
2018-09-12T02:46:23.971Z,48.10
2018-09-12T02:47:32.439Z,48.10
2018-09-12T02:48:35.688Z,48.10
2018-09-12T02:49:38.800Z,48.10
2018-09-12T02:50:41.869Z,48.10
2018-09-12T02:51:44.985Z,48.10
2018-09-12T02:52:48.073Z,48.20
2018-09-12T02:53:51.174Z,48.20
2018-09-12T02:54:54.275Z,48.20
2018-09-12T02:55:57.457Z,48.20
2018-09-12T02:57:00.540Z,48.20
2018-09-12T02:58:03.730Z,48.20
2018-09-12T02:59:07.000Z,48.20
2018-09-12T03:00:10.436Z,48.20
2018-09-12T03:01:13.764Z,48.20
2018-09-12T03:02:17.116Z,48.20
2018-09-12T03:03:20.492Z,48.20
2018-09-12T03:04:24.916Z,48.20
2018-09-12T03:05:28.008Z,48.20
2018-09-12T03:06:31.983Z,48.20
2018-09-12T03:07:35.566Z,48.20
2018-09-12T03:08:40.716Z,48.20
2018-09-12T03:09:43.893Z,48.20
2018-09-12T03:10:47.009Z,48.20
2018-09-12T03:11:50.156Z,48.20
2018-09-12T03:12:53.197Z,48.80
2018-09-12T03:13:56.501Z,48.20
2018-09-12T03:14:59.714Z,48.10
2018-09-12T03:16:02.943Z,48.10
2018-09-12T03:17:06.012Z,48.20
2018-09-12T03:18:09.265Z,48.20
2018-09-12T03:19:12.512Z,48.20
2018-09-12T03:20:15.588Z,48.20
2018-09-12T03:21:18.765Z,48.20
2018-09-12T03:22:21.863Z,48.20
2018-09-12T03:23:25.112Z,48.10
2018-09-12T03:24:28.379Z,48.10
2018-09-12T03:25:31.573Z,48.10
2018-09-12T03:26:34.884Z,48.10
2018-09-12T03:27:38.169Z,48.20
2018-09-12T03:28:41.420Z,48.10
2018-09-12T03:29:44.681Z,48.10
2018-09-12T03:30:47.776Z,48.10
2018-09-12T03:31:51.842Z,48.10
2018-09-12T03:32:55.779Z,48.10
2018-09-12T03:34:00.204Z,48.20
2018-09-12T03:35:03.809Z,48.20
2018-09-12T03:36:07.043Z,48.10
2018-09-12T03:37:10.135Z,48.20
2018-09-12T03:38:13.244Z,48.10
2018-09-12T03:39:18.023Z,48.30
2018-09-12T03:40:21.609Z,48.20
2018-09-12T03:41:26.842Z,48.20
2018-09-12T03:42:32.523Z,48.20
2018-09-12T03:43:38.527Z,48.10
2018-09-12T03:44:41.624Z,48.30
2018-09-12T03:45:44.740Z,48.10
2018-09-12T03:46:47.788Z,48.10
2018-09-12T03:47:51.130Z,48.10
2018-09-12T03:48:55.264Z,48.10
2018-09-12T03:49:58.898Z,48.10
2018-09-12T03:51:03.501Z,48.20
2018-09-12T03:52:11.168Z,48.20
2018-09-12T03:53:17.853Z,48.20
2018-09-12T03:54:21.449Z,48.20
2018-09-12T03:55:25.249Z,48.20
2018-09-12T03:56:28.621Z,48.10
2018-09-12T03:57:32.271Z,48.10
2018-09-12T03:58:37.931Z,48.10
2018-09-12T03:59:43.204Z,48.10
2018-09-12T04:00:47.213Z,48.10
2018-09-12T04:01:50.455Z,48.10
2018-09-12T04:02:54.136Z,48.10
2018-09-12T04:03:57.314Z,48.10
2018-09-12T04:05:00.492Z,48.10
2018-09-12T04:06:03.588Z,48.10
2018-09-12T04:07:06.713Z,48.10
2018-09-12T04:08:09.812Z,48.10
2018-09-12T04:09:12.903Z,48.10
2018-09-12T04:10:15.938Z,48.10
2018-09-12T04:11:19.311Z,48.10
2018-09-12T04:12:22.555Z,48.10
2018-09-12T04:13:25.740Z,48.10
2018-09-12T04:14:28.916Z,48.10
2018-09-12T04:15:32.072Z,48.10
2018-09-12T04:16:35.232Z,48.10
2018-09-12T04:17:38.297Z,48.10
2018-09-12T04:18:41.369Z,48.10
2018-09-12T04:19:44.412Z,48.10
2018-09-12T04:20:47.528Z,48.10
2018-09-12T04:21:50.741Z,48.10
2018-09-12T04:22:53.793Z,48.10
2018-09-12T04:23:56.903Z,48.10
2018-09-12T04:24:59.976Z,48.10
2018-09-12T04:26:02.973Z,48.10
2018-09-12T04:27:05.953Z,48.10
2018-09-12T04:28:09.000Z,48.10
2018-09-12T04:29:11.978Z,48.10
2018-09-12T04:30:15.005Z,48.10
2018-09-12T04:31:18.076Z,48.10
2018-09-12T04:32:21.125Z,48.10
2018-09-12T04:33:24.135Z,48.10
2018-09-12T04:34:27.187Z,48.10
2018-09-12T04:35:30.216Z,48.10
2018-09-12T04:36:33.299Z,48.10
2018-09-12T04:37:36.348Z,48.10
2018-09-12T04:38:39.384Z,48.10
2018-09-12T04:39:42.453Z,48.10
2018-09-12T04:40:45.548Z,48.10
2018-09-12T04:41:48.708Z,48.10
2018-09-12T04:42:51.969Z,48.10
2018-09-12T04:43:55.452Z,48.00
2018-09-12T04:44:58.475Z,48.10
2018-09-12T04:46:01.491Z,48.10
2018-09-12T04:47:04.580Z,48.00
2018-09-12T04:48:07.571Z,48.10
2018-09-12T04:49:10.587Z,48.10
2018-09-12T04:50:13.651Z,48.10
2018-09-12T04:51:16.624Z,48.10
2018-09-12T04:52:19.682Z,48.10
2018-09-12T04:53:22.724Z,48.10
2018-09-12T04:54:25.765Z,48.10
2018-09-12T04:55:28.797Z,48.10
2018-09-12T04:56:31.822Z,48.10
2018-09-12T04:57:34.931Z,48.10
2018-09-12T04:58:37.999Z,48.10
2018-09-12T04:59:41.079Z,48.10
2018-09-12T05:00:44.056Z,48.10
2018-09-12T05:01:47.152Z,48.10
2018-09-12T05:02:50.248Z,48.10
2018-09-12T05:03:53.394Z,48.60
2018-09-12T05:04:56.433Z,48.00
2018-09-12T05:05:59.435Z,48.10
2018-09-12T05:07:02.517Z,48.10
2018-09-12T05:08:05.612Z,48.00
2018-09-12T05:09:09.878Z,48.10
2018-09-12T05:10:12.997Z,48.10
2018-09-12T05:11:16.013Z,48.10
2018-09-12T05:12:19.085Z,48.10
2018-09-12T05:13:22.189Z,48.10
2018-09-12T05:14:25.236Z,48.10
2018-09-12T05:15:28.368Z,48.10
2018-09-12T05:16:32.571Z,48.10
2018-09-12T05:17:35.764Z,48.10
2018-09-12T05:18:39.193Z,48.10
2018-09-12T05:19:42.291Z,48.00
2018-09-12T05:20:45.327Z,48.10
2018-09-12T05:21:48.366Z,48.10
2018-09-12T05:22:51.497Z,48.10
2018-09-12T05:23:54.569Z,48.10
2018-09-12T05:24:57.661Z,48.10
2018-09-12T05:26:00.712Z,48.00
2018-09-12T05:27:03.765Z,48.10
2018-09-12T05:28:06.819Z,48.10
2018-09-12T05:29:09.895Z,48.10
2018-09-12T05:30:12.978Z,48.10
2018-09-12T05:31:16.081Z,48.10
2018-09-12T05:32:19.063Z,48.10
2018-09-12T05:33:22.178Z,48.10
2018-09-12T05:34:25.178Z,48.00
2018-09-12T05:35:28.247Z,48.00
2018-09-12T05:36:31.401Z,48.00
2018-09-12T05:37:34.459Z,48.00
2018-09-12T05:38:37.545Z,47.90
2018-09-12T05:39:40.608Z,48.00
2018-09-12T05:40:43.691Z,48.00
2018-09-12T05:41:46.700Z,47.90
2018-09-12T05:42:49.784Z,48.00
2018-09-12T05:43:52.864Z,48.00
2018-09-12T05:44:55.980Z,48.00
2018-09-12T05:45:59.011Z,48.00
2018-09-12T05:47:02.004Z,48.00
2018-09-12T05:48:05.325Z,48.00
2018-09-12T05:49:08.945Z,48.00
2018-09-12T05:50:13.218Z,48.00
2018-09-12T05:51:16.226Z,48.00
2018-09-12T05:52:19.704Z,48.00
2018-09-12T05:53:22.764Z,48.00
2018-09-12T05:54:25.823Z,47.90
2018-09-12T05:55:29.071Z,48.00
2018-09-12T05:56:32.153Z,47.90
2018-09-12T05:57:36.685Z,47.90
2018-09-12T05:58:39.859Z,47.90
2018-09-12T05:59:42.909Z,47.90
2018-09-12T06:00:45.970Z,47.90
2018-09-12T06:01:49.033Z,47.90
2018-09-12T06:02:52.272Z,47.90
2018-09-12T06:03:55.467Z,47.90
2018-09-12T06:04:58.553Z,47.80
2018-09-12T06:06:01.716Z,47.90
2018-09-12T06:07:04.914Z,47.90
2018-09-12T06:08:07.871Z,47.90
2018-09-12T06:09:11.119Z,47.90
2018-09-12T06:10:14.181Z,47.90
2018-09-12T06:11:17.295Z,47.90
2018-09-12T06:12:20.405Z,47.90
2018-09-12T06:13:23.504Z,47.90
2018-09-12T06:14:26.544Z,47.90
2018-09-12T06:15:29.635Z,47.90
2018-09-12T06:16:32.772Z,47.90
2018-09-12T06:17:35.840Z,47.90
2018-09-12T06:18:38.871Z,48.00
2018-09-12T06:19:41.918Z,48.00
2018-09-12T06:20:44.912Z,48.00
2018-09-12T06:21:48.388Z,48.00
2018-09-12T06:22:51.457Z,48.00
2018-09-12T06:23:54.664Z,48.00
2018-09-12T06:24:57.930Z,48.00
2018-09-12T06:26:00.994Z,48.00
2018-09-12T06:27:04.024Z,48.00
2018-09-12T06:28:07.096Z,48.00
2018-09-12T06:29:10.184Z,48.00
2018-09-12T06:30:13.281Z,48.00
2018-09-12T06:31:16.284Z,48.00
2018-09-12T06:32:19.359Z,48.00
2018-09-12T06:33:22.449Z,48.00
2018-09-12T06:34:25.528Z,48.00
2018-09-12T06:35:28.575Z,48.00
2018-09-12T06:36:31.632Z,48.00
2018-09-12T06:37:34.852Z,48.00
2018-09-12T06:38:37.785Z,48.00
2018-09-12T06:39:40.916Z,48.10
2018-09-12T06:40:43.985Z,48.00
2018-09-12T06:41:47.091Z,48.00
2018-09-12T06:42:50.198Z,48.00
2018-09-12T06:43:53.496Z,48.00
2018-09-12T06:44:56.568Z,48.00
2018-09-12T06:45:59.737Z,48.00
2018-09-12T06:47:02.740Z,48.00
2018-09-12T06:48:05.985Z,48.00
2018-09-12T06:49:09.274Z,48.00
2018-09-12T06:50:12.334Z,48.00
2018-09-12T06:51:15.399Z,48.00
2018-09-12T06:52:20.060Z,48.00
2018-09-12T06:53:23.469Z,48.00
2018-09-12T06:54:26.801Z,48.00
2018-09-12T06:55:30.136Z,48.00
2018-09-12T06:56:33.383Z,48.10
2018-09-12T06:57:36.450Z,48.00
2018-09-12T06:58:39.521Z,48.10
2018-09-12T06:59:42.601Z,48.00
2018-09-12T07:00:45.701Z,48.10
2018-09-12T07:01:49.346Z,48.10
2018-09-12T07:02:52.639Z,48.10
2018-09-12T07:03:55.721Z,48.10
2018-09-12T07:04:58.983Z,48.80
2018-09-12T07:06:02.154Z,48.20
2018-09-12T07:07:05.341Z,48.30
2018-09-12T07:08:08.423Z,48.30
2018-09-12T07:09:11.921Z,48.40
2018-09-12T07:10:14.974Z,48.50
2018-09-12T07:11:18.045Z,48.40
2018-09-12T07:12:21.043Z,48.30
2018-09-12T07:13:24.320Z,48.40
2018-09-12T07:14:27.382Z,48.60
2018-09-12T07:15:30.491Z,48.80
2018-09-12T07:16:33.524Z,48.80
2018-09-12T07:17:36.615Z,48.70
2018-09-12T07:18:39.684Z,48.80
2018-09-12T07:19:42.735Z,48.90
2018-09-12T07:20:45.824Z,48.80
2018-09-12T07:21:48.804Z,48.80
2018-09-12T07:22:51.867Z,48.70
2018-09-12T07:23:54.899Z,49.30
2018-09-12T07:24:57.932Z,48.70
2018-09-12T07:26:01.024Z,48.70
2018-09-12T07:27:04.142Z,47.90
2018-09-12T07:28:07.203Z,48.70
2018-09-12T07:29:10.349Z,48.50
2018-09-12T07:30:13.581Z,48.70
2018-09-12T07:31:16.804Z,49.00
2018-09-12T07:32:19.954Z,49.20
2018-09-12T07:33:23.349Z,49.40
2018-09-12T07:34:26.494Z,49.50
2018-09-12T07:35:29.514Z,49.50
2018-09-12T07:36:33.278Z,49.50
2018-09-12T07:37:36.537Z,49.50
2018-09-12T07:38:39.700Z,49.40
2018-09-12T07:39:42.820Z,49.30
2018-09-12T07:40:45.905Z,49.30
2018-09-12T07:41:49.030Z,49.30
2018-09-12T07:42:52.263Z,49.30
2018-09-12T07:43:55.535Z,49.30
2018-09-12T07:44:58.516Z,49.30
2018-09-12T07:46:01.601Z,49.40
2018-09-12T07:47:04.607Z,49.50
2018-09-12T07:48:07.726Z,49.50
2018-09-12T07:49:10.735Z,49.50
2018-09-12T07:50:13.721Z,49.50
2018-09-12T07:51:16.743Z,49.50
2018-09-12T07:52:19.875Z,49.50
2018-09-12T07:53:22.975Z,49.50
2018-09-12T07:54:26.098Z,49.50
2018-09-12T07:55:29.122Z,49.40
2018-09-12T07:56:33.190Z,49.50
2018-09-12T07:57:36.190Z,49.50
2018-09-12T07:58:39.228Z,49.50
2018-09-12T07:59:42.259Z,49.50
2018-09-12T08:00:45.302Z,49.50
2018-09-12T08:01:48.429Z,49.50
2018-09-12T08:02:51.489Z,49.50
2018-09-12T08:03:54.544Z,49.30
2018-09-12T08:04:57.741Z,48.90
2018-09-12T08:06:00.728Z,48.60
2018-09-12T08:07:03.885Z,48.50
2018-09-12T08:08:06.957Z,48.50
2018-09-12T08:09:12.279Z,48.50
2018-09-12T08:10:15.361Z,48.50
2018-09-12T08:11:18.439Z,48.70
2018-09-12T08:12:21.588Z,49.10
2018-09-12T08:13:24.563Z,49.30
2018-09-12T08:14:27.588Z,49.20
2018-09-12T08:15:30.582Z,49.20
2018-09-12T08:16:33.645Z,49.30
2018-09-12T08:17:36.760Z,49.30
2018-09-12T08:18:40.201Z,49.20
2018-09-12T08:19:43.217Z,49.10
2018-09-12T08:20:46.208Z,48.90
2018-09-12T08:21:49.257Z,49.00
2018-09-12T08:22:52.469Z,48.90
2018-09-12T08:23:55.798Z,48.80
2018-09-12T08:24:58.849Z,48.80
2018-09-12T08:26:01.889Z,48.80
2018-09-12T08:27:04.909Z,48.80
2018-09-12T08:28:07.973Z,48.80
2018-09-12T08:29:11.078Z,48.80
2018-09-12T08:30:14.176Z,48.70
2018-09-12T08:31:17.167Z,48.70
2018-09-12T08:32:20.277Z,48.70
2018-09-12T08:33:23.651Z,48.60
2018-09-12T08:34:26.632Z,48.70
2018-09-12T08:35:29.659Z,49.00
2018-09-12T08:36:32.905Z,49.00
2018-09-12T08:37:35.803Z,49.40
2018-09-12T08:38:38.836Z,49.50
2018-09-12T08:39:41.937Z,49.20
2018-09-12T08:40:45.001Z,49.00
2018-09-12T08:41:48.113Z,48.90
2018-09-12T08:42:51.125Z,48.80
2018-09-12T08:43:54.465Z,48.80
2018-09-12T08:44:57.887Z,48.70
2018-09-12T08:46:00.955Z,48.60
2018-09-12T08:47:03.996Z,48.60
2018-09-12T08:48:07.150Z,48.60
2018-09-12T08:49:10.213Z,48.70
2018-09-12T08:50:13.246Z,48.50
2018-09-12T08:51:16.324Z,48.30
2018-09-12T08:52:19.457Z,48.30
2018-09-12T08:53:22.755Z,48.40
2018-09-12T08:54:25.852Z,48.30
2018-09-12T08:55:28.953Z,48.30
2018-09-12T08:56:32.004Z,48.20
2018-09-12T08:57:35.036Z,48.20
2018-09-12T08:58:38.211Z,48.80
2018-09-12T08:59:41.262Z,48.00
2018-09-12T09:00:45.018Z,47.80
2018-09-12T09:01:48.081Z,47.80
2018-09-12T09:02:51.208Z,47.80
2018-09-12T09:03:54.315Z,47.70
2018-09-12T09:04:57.430Z,47.60
2018-09-12T09:06:00.636Z,47.50
2018-09-12T09:07:03.680Z,47.50
2018-09-12T09:08:06.776Z,47.30
2018-09-12T09:09:10.931Z,47.30
2018-09-12T09:10:14.051Z,47.40
2018-09-12T09:11:17.153Z,47.40
2018-09-12T09:12:20.300Z,47.30
2018-09-12T09:13:23.310Z,47.30
2018-09-12T09:14:26.389Z,47.30
2018-09-12T09:15:29.664Z,47.30
2018-09-12T09:16:32.684Z,47.20
2018-09-12T09:17:35.760Z,47.20
2018-09-12T09:18:38.877Z,47.20
2018-09-12T09:19:41.927Z,47.20
2018-09-12T09:20:45.083Z,47.20
2018-09-12T09:21:48.152Z,47.20
2018-09-12T09:22:51.268Z,47.10
2018-09-12T09:23:54.409Z,47.20
2018-09-12T09:24:57.436Z,47.20
2018-09-12T09:26:00.572Z,47.10
2018-09-12T09:27:03.561Z,47.10
2018-09-12T09:28:06.627Z,47.10
2018-09-12T09:29:09.694Z,47.10
2018-09-12T09:30:12.773Z,47.10
2018-09-12T09:31:15.989Z,47.20
2018-09-12T09:32:19.064Z,47.20
2018-09-12T09:33:22.181Z,47.00
2018-09-12T09:34:25.305Z,47.00
2018-09-12T09:35:28.571Z,46.90
2018-09-12T09:36:31.571Z,46.90
2018-09-12T09:37:34.665Z,46.90
2018-09-12T09:38:37.679Z,47.00
2018-09-12T09:39:40.757Z,47.10
2018-09-12T09:40:43.804Z,47.10
2018-09-12T09:41:47.223Z,47.10
2018-09-12T09:42:50.429Z,47.20
2018-09-12T09:43:53.609Z,47.30
2018-09-12T09:44:56.671Z,47.20
2018-09-12T09:45:59.698Z,47.20
2018-09-12T09:47:02.726Z,47.10
2018-09-12T09:48:05.775Z,47.20
2018-09-12T09:49:08.823Z,47.20
2018-09-12T09:50:11.872Z,47.20
2018-09-12T09:51:15.128Z,47.20
2018-09-12T09:52:18.237Z,47.20
2018-09-12T09:53:21.259Z,47.10
2018-09-12T09:54:24.306Z,47.20
2018-09-12T09:55:27.317Z,47.20
2018-09-12T09:56:30.319Z,47.10
2018-09-12T09:57:33.337Z,47.10
2018-09-12T09:58:36.612Z,47.10
2018-09-12T09:59:39.639Z,47.10
2018-09-12T10:00:48.192Z,47.10
2018-09-12T10:01:56.981Z,47.10
2018-09-12T10:03:06.194Z,47.10
2018-09-12T10:04:11.011Z,47.00
2018-09-12T10:05:19.380Z,47.00
2018-09-12T10:06:28.089Z,47.00
2018-09-12T10:07:36.358Z,47.00
2018-09-12T10:08:44.728Z,47.00
2018-09-12T10:09:47.805Z,47.00
2018-09-12T10:10:50.861Z,47.00
2018-09-12T10:11:54.020Z,47.00
2018-09-12T10:12:57.034Z,47.00
2018-09-12T10:14:00.081Z,47.00
2018-09-12T10:15:04.305Z,46.90
2018-09-12T10:16:07.419Z,46.90
2018-09-12T10:17:10.433Z,46.90
2018-09-12T10:18:13.528Z,47.00
2018-09-12T10:19:16.607Z,47.20
2018-09-12T10:20:19.675Z,47.20
2018-09-12T10:21:22.708Z,47.40
2018-09-12T10:22:25.838Z,47.40
2018-09-12T10:23:29.068Z,47.40
2018-09-12T10:24:32.158Z,47.10
2018-09-12T10:25:35.194Z,47.10
2018-09-12T10:26:38.214Z,47.30
2018-09-12T10:27:41.288Z,47.10
2018-09-12T10:28:44.484Z,47.20
2018-09-12T10:29:47.616Z,47.40
2018-09-12T10:30:50.670Z,47.50
2018-09-12T10:31:53.685Z,47.40
2018-09-12T10:32:56.824Z,47.10
2018-09-12T10:33:59.964Z,47.00
2018-09-12T10:35:03.053Z,47.10
2018-09-12T10:36:06.132Z,47.20
2018-09-12T10:37:09.194Z,47.10
2018-09-12T10:38:12.256Z,46.80
2018-09-12T10:39:15.261Z,47.20
2018-09-12T10:40:18.331Z,47.20
2018-09-12T10:41:21.393Z,46.90
2018-09-12T10:42:24.503Z,46.60
2018-09-12T10:43:27.583Z,46.20
2018-09-12T10:44:30.803Z,46.00
2018-09-12T10:45:34.090Z,45.70
2018-09-12T10:46:37.313Z,45.50
2018-09-12T10:47:40.729Z,45.50
2018-09-12T10:48:43.810Z,46.00
2018-09-12T10:49:46.889Z,45.20
2018-09-12T10:50:50.140Z,45.20
2018-09-12T10:51:53.432Z,45.10
2018-09-12T10:52:56.723Z,45.00
2018-09-12T10:53:59.725Z,45.00
2018-09-12T10:55:04.058Z,44.90
2018-09-12T10:56:07.452Z,44.90
2018-09-12T10:57:10.675Z,45.00
2018-09-12T10:58:13.775Z,44.90
2018-09-12T10:59:16.858Z,44.80
2018-09-12T11:00:20.108Z,44.80
2018-09-12T11:01:23.243Z,44.80
2018-09-12T11:02:26.256Z,44.90
2018-09-12T11:03:29.348Z,44.80
2018-09-12T11:04:32.645Z,45.30
2018-09-12T11:05:35.722Z,44.70
2018-09-12T11:06:38.745Z,44.60
2018-09-12T11:07:41.803Z,44.70
2018-09-12T11:08:44.870Z,45.30
2018-09-12T11:09:48.018Z,44.60
2018-09-12T11:10:51.016Z,44.60
2018-09-12T11:11:54.017Z,44.60
2018-09-12T11:12:57.071Z,44.60
2018-09-12T11:14:00.375Z,44.60
2018-09-12T11:15:03.849Z,44.70
2018-09-12T11:16:07.120Z,44.60
2018-09-12T11:17:10.246Z,44.60
2018-09-12T11:18:13.330Z,44.60
2018-09-12T11:19:16.466Z,44.60
2018-09-12T11:20:19.529Z,44.60
2018-09-12T11:21:22.573Z,44.50
2018-09-12T11:22:25.817Z,44.50
2018-09-12T11:23:28.933Z,44.70
2018-09-12T11:24:32.011Z,44.70
2018-09-12T11:25:35.289Z,44.60
2018-09-12T11:26:38.352Z,44.60
2018-09-12T11:27:41.401Z,44.60
2018-09-12T11:28:44.480Z,44.50
2018-09-12T11:29:47.501Z,44.50
2018-09-12T11:30:50.720Z,44.50
2018-09-12T11:31:53.993Z,44.70
2018-09-12T11:32:57.103Z,44.70
2018-09-12T11:34:00.162Z,44.80
2018-09-12T11:35:03.271Z,44.70
2018-09-12T11:36:06.605Z,44.70
2018-09-12T11:37:09.724Z,44.80
2018-09-12T11:38:12.799Z,44.70
2018-09-12T11:39:15.856Z,44.60
2018-09-12T11:40:18.963Z,44.50
2018-09-12T11:41:22.072Z,44.50
2018-09-12T11:42:25.218Z,44.40
2018-09-12T11:43:28.208Z,44.40
2018-09-12T11:44:31.374Z,44.40
2018-09-12T11:45:34.438Z,44.40
2018-09-12T11:46:37.475Z,44.40
2018-09-12T11:47:40.554Z,44.40
2018-09-12T11:48:43.623Z,44.40
2018-09-12T11:49:46.700Z,44.50
2018-09-12T11:50:49.767Z,44.40
2018-09-12T11:51:52.842Z,44.50
2018-09-12T11:52:55.965Z,44.60
2018-09-12T11:53:59.183Z,44.70
2018-09-12T11:55:02.157Z,44.70
2018-09-12T11:56:05.203Z,44.70
2018-09-12T11:57:08.216Z,44.70
2018-09-12T11:58:11.269Z,44.80
2018-09-12T11:59:14.245Z,44.70
2018-09-12T12:00:17.337Z,44.80
2018-09-12T12:01:20.485Z,44.80
2018-09-12T12:02:23.504Z,44.70
2018-09-12T12:03:26.531Z,44.70
2018-09-12T12:04:29.670Z,44.70
2018-09-12T12:05:32.740Z,44.70
2018-09-12T12:06:35.989Z,44.70
2018-09-12T12:07:39.289Z,44.70
2018-09-12T12:08:42.701Z,44.60
2018-09-12T12:09:45.810Z,44.60
2018-09-12T12:10:48.857Z,44.70
2018-09-12T12:11:51.885Z,44.70
2018-09-12T12:12:54.892Z,44.70
2018-09-12T12:13:57.972Z,44.70
2018-09-12T12:15:01.043Z,44.70
2018-09-12T12:16:04.348Z,44.70
2018-09-12T12:17:07.406Z,44.80
2018-09-12T12:18:10.718Z,44.70
2018-09-12T12:19:13.839Z,44.30
2018-09-12T12:20:16.952Z,43.80
2018-09-12T12:21:20.314Z,44.00
2018-09-12T12:22:23.811Z,44.10
2018-09-12T12:23:27.012Z,43.60
2018-09-12T12:24:30.373Z,43.00
2018-09-12T12:25:33.395Z,42.80
2018-09-12T12:26:36.490Z,42.70
2018-09-12T12:27:39.583Z,42.40
2018-09-12T12:28:42.575Z,42.50
2018-09-12T12:29:45.600Z,42.60
2018-09-12T12:30:48.691Z,42.80
2018-09-12T12:31:51.744Z,42.50
2018-09-12T12:32:54.836Z,42.30
2018-09-12T12:33:57.942Z,42.80
2018-09-12T12:35:00.936Z,42.70
2018-09-12T12:36:03.975Z,42.90
2018-09-12T12:37:07.065Z,42.80
2018-09-12T12:38:10.299Z,42.70
2018-09-12T12:39:13.312Z,42.50
2018-09-12T12:40:16.589Z,42.70
2018-09-12T12:41:19.840Z,42.50
2018-09-12T12:42:22.837Z,42.50
2018-09-12T12:43:25.924Z,42.20
2018-09-12T12:44:29.027Z,42.20
2018-09-12T12:45:32.144Z,42.30
2018-09-12T12:46:35.212Z,42.40
2018-09-12T12:47:38.280Z,42.30
2018-09-12T12:48:41.381Z,42.20
2018-09-12T12:49:44.423Z,42.40
2018-09-12T12:50:47.464Z,42.20
2018-09-12T12:51:50.560Z,42.40
2018-09-12T12:52:53.628Z,42.20
2018-09-12T12:53:56.819Z,42.10
2018-09-12T12:54:59.903Z,42.10
2018-09-12T12:56:02.915Z,42.10
2018-09-12T12:57:05.994Z,41.90
2018-09-12T12:58:09.104Z,41.70
2018-09-12T12:59:12.422Z,41.50
2018-09-12T13:00:15.484Z,41.70
2018-09-12T13:01:18.532Z,41.70
2018-09-12T13:02:21.659Z,42.00
2018-09-12T13:03:24.689Z,42.30
2018-09-12T13:04:27.736Z,42.30
2018-09-12T13:05:30.860Z,42.50
2018-09-12T13:06:33.943Z,42.50
2018-09-12T13:07:36.916Z,42.60
2018-09-12T13:08:39.992Z,42.80
2018-09-12T13:09:43.118Z,42.90
2018-09-12T13:10:46.252Z,43.00
2018-09-12T13:11:49.512Z,42.90
2018-09-12T13:12:52.628Z,42.80
2018-09-12T13:13:55.648Z,42.70
2018-09-12T13:14:58.685Z,42.10
2018-09-12T13:16:01.836Z,42.50
2018-09-12T13:17:04.869Z,42.80
2018-09-12T13:18:07.912Z,42.70
2018-09-12T13:19:10.993Z,42.60
2018-09-12T13:20:14.193Z,42.70
2018-09-12T13:21:17.316Z,42.80
2018-09-12T13:22:20.359Z,42.90
2018-09-12T13:23:23.357Z,43.00
2018-09-12T13:24:26.384Z,43.10
2018-09-12T13:25:29.397Z,43.20
2018-09-12T13:26:32.409Z,43.20
2018-09-12T13:27:35.518Z,43.20
2018-09-12T13:28:38.580Z,43.20
2018-09-12T13:29:41.568Z,43.30
2018-09-12T13:30:44.766Z,43.20
2018-09-12T13:31:47.772Z,43.10
2018-09-12T13:32:50.972Z,42.90
2018-09-12T13:33:54.046Z,43.00
2018-09-12T13:34:57.058Z,43.10
2018-09-12T13:36:00.092Z,43.20